Time;durP1;ratioP1;P1;durP2;ratioP2;P2;SDS_P1;SDS_P2;PMS_P1;PMS_P2;Temp;Humidity;BMP_temperature;BMP_pressure;BME280_temperature;BME280_humidity;BME280_pressure;Samples;Min_cycle;Max_cycle;Signal;HPM_P1;HPM_P2
2021/05/14 00:01:23;;;;;;;10.03;5.83;;;10.70;99.90;;;;;;5115299;28;20737;-62
2021/05/14 00:03:52;;;;;;;6.80;5.60;;;10.70;99.90;;;;;;5115632;28;20669;-62
2021/05/14 00:06:19;;;;;;;8.83;5.77;;;10.70;99.90;;;;;;5115218;28;20235;-61
2021/05/14 00:08:46;;;;;;;6.87;6.17;;;10.70;99.90;;;;;;5115250;28;20294;-62
2021/05/14 00:11:15;;;;;;;7.07;6.03;;;10.60;99.90;;;;;;5114822;28;20203;-61
2021/05/14 00:13:42;;;;;;;6.73;6.03;;;10.60;99.90;;;;;;5114855;28;20238;-63
2021/05/14 00:16:10;;;;;;;5.77;5.23;;;10.50;99.90;;;;;;5115408;28;20634;-63
2021/05/14 00:18:37;;;;;;;7.37;6.67;;;10.50;99.90;;;;;;5114841;28;20229;-59
2021/05/14 00:21:05;;;;;;;7.07;6.37;;;10.40;99.90;;;;;;5114745;28;20554;-59
2021/05/14 00:23:32;;;;;;;7.17;6.47;;;10.50;99.90;;;;;;5114851;28;20203;-59
2021/05/14 00:25:59;;;;;;;6.67;5.97;;;10.50;99.90;;;;;;5115044;28;20203;-59
2021/05/14 00:28:28;;;;;;;8.40;7.00;;;10.50;99.90;;;;;;5114415;28;20586;-58
2021/05/14 00:30:55;;;;;;;8.10;6.63;;;10.50;99.90;;;;;;5114635;28;20206;-59
2021/05/14 00:33:22;;;;;;;7.80;7.00;;;10.50;99.90;;;;;;5114796;28;20227;-60
2021/05/14 00:35:50;;;;;;;7.97;7.17;;;10.60;99.90;;;;;;5114961;28;20199;-58
2021/05/14 00:38:17;;;;;;;7.70;6.80;;;10.60;99.90;;;;;;5114637;28;20318;-59
2021/05/14 00:40:45;;;;;;;9.60;7.33;;;10.60;99.90;;;;;;5115007;28;20199;-58
2021/05/14 00:43:12;;;;;;;9.73;7.27;;;10.60;99.90;;;;;;5114508;28;20203;-59
2021/05/14 00:45:40;;;;;;;8.47;7.53;;;10.50;99.90;;;;;;5114346;28;20241;-60
2021/05/14 00:48:08;;;;;;;8.27;7.00;;;10.50;99.90;;;;;;5114217;28;20249;-60
2021/05/14 00:50:35;;;;;;;7.77;6.97;;;10.50;99.90;;;;;;5114490;28;20195;-58
2021/05/14 00:53:02;;;;;;;10.70;7.70;;;10.50;99.90;;;;;;5114290;28;20230;-59
2021/05/14 00:55:30;;;;;;;7.53;6.83;;;10.50;99.90;;;;;;5114418;28;20227;-60
2021/05/14 00:57:57;;;;;;;7.83;6.67;;;10.50;99.90;;;;;;5114395;28;20205;-59
2021/05/14 01:00:25;;;;;;;7.23;6.53;;;10.50;99.90;;;;;;5114120;28;20781;-59
2021/05/14 01:02:54;;;;;;;8.87;6.80;;;10.50;99.90;;;;;;5114091;28;20225;-59
2021/05/14 01:05:23;;;;;;;7.77;6.83;;;10.50;99.90;;;;;;5113678;28;20294;-59
2021/05/14 01:07:51;;;;;;;8.37;7.20;;;10.50;99.90;;;;;;5113755;28;20252;-59
2021/05/14 01:10:18;;;;;;;6.67;6.00;;;10.60;99.90;;;;;;5113925;28;20206;-59
2021/05/14 01:12:46;;;;;;;7.10;6.40;;;10.60;99.90;;;;;;5114101;28;20247;-58
2021/05/14 01:15:14;;;;;;;8.10;6.63;;;10.60;99.90;;;;;;5093577;28;20204;-59
2021/05/14 01:17:41;;;;;;;8.47;6.60;;;10.60;99.90;;;;;;5093478;28;20232;-60
2021/05/14 01:20:11;;;;;;;7.47;6.37;;;10.50;99.90;;;;;;5093481;28;20290;-59
2021/05/14 01:22:40;;;;;;;6.73;6.03;;;10.50;99.90;;;;;;5093679;28;20310;-59
2021/05/14 01:25:09;;;;;;;7.40;6.47;;;10.50;99.90;;;;;;5093335;28;20200;-59
2021/05/14 01:27:36;;;;;;;7.90;6.40;;;10.50;99.90;;;;;;5093433;28;20279;-59
2021/05/14 01:30:05;;;;;;;8.77;6.23;;;10.50;99.90;;;;;;5092787;28;20664;-59
2021/05/14 01:32:32;;;;;;;9.03;6.13;;;10.50;99.90;;;;;;5093114;28;20222;-61
2021/05/14 01:35:00;;;;;;;6.40;5.80;;;10.50;99.90;;;;;;5093175;28;20234;-59
2021/05/14 01:37:27;;;;;;;7.03;6.30;;;10.50;99.90;;;;;;5093122;28;20318;-58
2021/05/14 01:39:55;;;;;;;8.23;6.00;;;10.50;99.90;;;;;;5093239;28;20223;-59
2021/05/14 01:42:22;;;;;;;6.73;6.03;;;10.40;99.90;;;;;;5093091;28;20200;-58
2021/05/14 01:44:50;;;;;;;6.87;6.13;;;10.30;99.90;;;;;;5092866;28;20282;-60
2021/05/14 01:47:17;;;;;;;8.73;6.47;;;10.30;99.90;;;;;;5093092;28;20227;-60
2021/05/14 01:49:45;;;;;;;6.67;5.97;;;10.30;99.90;;;;;;5093162;28;20199;-59
2021/05/14 01:52:12;;;;;;;8.20;7.30;;;10.20;99.90;;;;;;5093062;28;20283;-59
2021/05/14 01:54:40;;;;;;;7.90;7.10;;;10.30;99.90;;;;;;5093021;28;20206;-59
2021/05/14 01:57:08;;;;;;;7.60;6.80;;;10.30;99.90;;;;;;5093176;28;20330;-59
2021/05/14 01:59:36;;;;;;;8.43;7.17;;;10.30;99.90;;;;;;5092769;28;20204;-59
2021/05/14 02:02:03;;;;;;;8.23;7.23;;;10.30;99.90;;;;;;5092812;28;20203;-59
2021/05/14 02:04:30;;;;;;;7.70;6.90;;;10.30;99.90;;;;;;5093115;28;20208;-58
2021/05/14 02:06:58;;;;;;;9.43;7.60;;;10.30;99.90;;;;;;5092763;28;20228;-59
2021/05/14 02:09:25;;;;;;;10.17;7.80;;;10.30;99.90;;;;;;5101875;28;20543;-59
2021/05/14 02:11:52;;;;;;;9.33;7.83;;;10.30;99.90;;;;;;5113087;28;20290;-58
2021/05/14 02:14:21;;;;;;;11.60;7.83;;;10.30;99.90;;;;;;5112829;28;20578;-59
2021/05/14 02:16:48;;;;;;;9.50;8.33;;;10.30;99.90;;;;;;5113221;28;20196;-59
2021/05/14 02:19:16;;;;;;;9.80;7.87;;;10.30;99.90;;;;;;5112929;28;20225;-59
2021/05/14 02:21:44;;;;;;;8.53;7.63;;;10.30;99.90;;;;;;5117070;28;20203;-59
2021/05/14 02:24:11;;;;;;;9.10;7.60;;;10.30;99.90;;;;;;5117262;28;20198;-59
2021/05/14 02:26:39;;;;;;;10.73;7.87;;;10.30;99.90;;;;;;5117395;28;20199;-58
2021/05/14 02:29:07;;;;;;;8.97;7.63;;;10.30;99.90;;;;;;5116778;28;20238;-59
2021/05/14 02:31:35;;;;;;;9.33;8.37;;;10.30;99.90;;;;;;5117264;28;20199;-59
2021/05/14 02:34:03;;;;;;;9.47;8.00;;;10.30;99.90;;;;;;5117113;28;20223;-59
2021/05/14 02:36:30;;;;;;;11.40;8.33;;;10.30;99.90;;;;;;5116989;28;20286;-59
2021/05/14 02:38:58;;;;;;;9.43;7.70;;;10.30;99.90;;;;;;5116646;28;20231;-59
2021/05/14 02:41:25;;;;;;;9.97;8.13;;;10.30;99.90;;;;;;5116645;28;20214;-59
2021/05/14 02:43:53;;;;;;;9.53;8.07;;;10.30;99.90;;;;;;5116790;28;20300;-59
2021/05/14 02:46:20;;;;;;;9.63;7.77;;;10.20;99.90;;;;;;5116499;28;20659;-59
2021/05/14 02:48:48;;;;;;;9.20;7.80;;;10.30;99.90;;;;;;5116543;28;20656;-59
2021/05/14 02:51:16;;;;;;;9.53;7.87;;;10.40;99.90;;;;;;5116532;28;20565;-59
2021/05/14 02:53:43;;;;;;;9.50;8.33;;;10.40;99.90;;;;;;5116208;28;20659;-59
2021/05/14 02:56:10;;;;;;;9.43;8.03;;;10.40;99.90;;;;;;5116806;28;20248;-59
2021/05/14 02:58:38;;;;;;;9.90;8.47;;;10.40;99.90;;;;;;5116490;28;20300;-59
2021/05/14 03:01:05;;;;;;;9.23;8.23;;;10.40;99.90;;;;;;5116342;28;20252;-59
2021/05/14 03:03:32;;;;;;;10.73;9.63;;;10.30;99.90;;;;;;5116589;28;20192;-59
2021/05/14 03:06:01;;;;;;;10.57;8.67;;;10.40;99.90;;;;;;5116359;28;20282;-59
2021/05/14 03:08:29;;;;;;;9.90;8.90;;;10.40;99.90;;;;;;5116490;28;20199;-59
2021/05/14 03:10:56;;;;;;;10.73;8.97;;;10.40;99.90;;;;;;5116320;28;20235;-59
2021/05/14 03:13:24;;;;;;;9.70;8.63;;;10.50;99.90;;;;;;5116325;28;20689;-59
2021/05/14 03:15:51;;;;;;;10.53;9.43;;;10.50;99.90;;;;;;5116403;28;20245;-59
2021/05/14 03:18:18;;;;;;;9.50;8.60;;;10.50;99.90;;;;;;5116624;28;20196;-58
2021/05/14 03:20:46;;;;;;;10.30;9.27;;;10.50;99.90;;;;;;5116576;28;20276;-58
2021/05/14 03:23:14;;;;;;;10.50;9.33;;;10.50;99.90;;;;;;5116525;28;20206;-58
2021/05/14 03:25:41;;;;;;;10.47;9.37;;;10.50;99.90;;;;;;5117103;28;20242;-58
2021/05/14 03:28:09;;;;;;;9.73;8.70;;;10.60;99.90;;;;;;5116350;28;20609;-58
2021/05/14 03:30:36;;;;;;;9.30;8.27;;;10.60;99.90;;;;;;5116256;28;20286;-59
2021/05/14 03:33:04;;;;;;;11.10;9.20;;;10.60;99.90;;;;;;5115788;28;20318;-58
2021/05/14 03:35:33;;;;;;;9.60;8.60;;;10.60;99.90;;;;;;5116097;28;20219;-59
2021/05/14 03:38:00;;;;;;;11.13;8.97;;;10.60;99.90;;;;;;5115820;28;20250;-59
2021/05/14 03:40:36;;;;;;;9.20;8.27;;;10.60;99.90;;;;;;5115983;28;20644;-59
2021/05/14 03:43:04;;;;;;;11.33;9.47;;;10.60;99.90;;;;;;5116070;28;20221;-59
2021/05/14 03:45:32;;;;;;;9.73;8.70;;;10.60;99.90;;;;;;5116011;28;20287;-59
2021/05/14 03:48:00;;;;;;;9.60;8.60;;;10.70;99.90;;;;;;5116033;28;20223;-59
2021/05/14 03:50:31;;;;;;;11.37;9.47;;;10.70;99.90;;;;;;5115900;28;20239;-58
2021/05/14 03:53:03;;;;;;;10.70;9.10;;;10.70;99.90;;;;;;5115942;28;20204;-59
2021/05/14 03:55:31;;;;;;;11.10;8.33;;;10.80;99.90;;;;;;5115624;28;20242;-59
2021/05/14 03:57:59;;;;;;;8.93;8.03;;;10.80;99.90;;;;;;5115560;28;20294;-59
2021/05/14 04:00:27;;;;;;;9.70;8.67;;;10.80;99.90;;;;;;5115232;28;20710;-59
2021/05/14 04:02:55;;;;;;;10.20;9.13;;;10.90;99.90;;;;;;5115419;28;20195;-59
2021/05/14 04:05:24;;;;;;;9.60;8.53;;;10.90;99.90;;;;;;5115644;28;20227;-59
2021/05/14 04:07:51;;;;;;;10.03;9.03;;;11.00;99.90;;;;;;5115457;28;20199;-59
2021/05/14 04:10:25;;;;;;;9.87;8.87;;;11.10;99.90;;;;;;5115242;28;20221;-59
2021/05/14 04:15:38;;;;;;;9.00;8.10;;;11.20;99.90;;;;;;5115116;28;20180;-59
2021/05/14 04:18:06;;;;;;;9.47;8.50;;;11.20;99.90;;;;;;5115174;28;20195;-60
2021/05/14 04:20:33;;;;;;;11.87;9.53;;;11.20;99.90;;;;;;5115034;28;20290;-59
2021/05/14 04:23:00;;;;;;;10.17;8.83;;;11.20;99.90;;;;;;5114863;28;20202;-58
2021/05/14 04:25:30;;;;;;;10.03;8.90;;;11.20;99.90;;;;;;5114916;28;20199;-59
2021/05/14 04:27:58;;;;;;;9.63;8.73;;;11.30;99.90;;;;;;5114805;28;20223;-59
2021/05/14 04:30:25;;;;;;;10.87;8.83;;;11.30;99.90;;;;;;5114952;28;20199;-60
2021/05/14 04:32:53;;;;;;;10.43;8.90;;;11.20;99.90;;;;;;5114695;28;20674;-59
2021/05/14 04:35:20;;;;;;;9.67;8.73;;;11.30;99.90;;;;;;5114762;28;20278;-59
2021/05/14 04:37:48;;;;;;;10.40;8.50;;;11.40;99.90;;;;;;5114445;28;20758;-60
2021/05/14 04:40:15;;;;;;;9.97;8.90;;;11.40;99.90;;;;;;5114304;28;20229;-58
2021/05/14 04:42:43;;;;;;;11.47;9.13;;;11.50;99.90;;;;;;5114175;28;20282;-59
2021/05/14 04:45:12;;;;;;;10.20;9.13;;;11.60;99.90;;;;;;5114127;28;20225;-59
2021/05/14 04:47:40;;;;;;;11.17;8.67;;;11.70;99.90;;;;;;5114611;28;20203;-59
2021/05/14 04:50:08;;;;;;;10.80;8.53;;;11.80;99.90;;;;;;5114156;28;20203;-60
2021/05/14 04:52:36;;;;;;;9.07;7.97;;;11.80;99.90;;;;;;5114372;28;20231;-58
2021/05/14 04:55:05;;;;;;;11.30;8.70;;;11.90;99.90;;;;;;5113908;28;20219;-59
2021/05/14 04:57:32;;;;;;;9.07;8.23;;;12.10;99.90;;;;;;5114385;28;20195;-59
2021/05/14 04:59:59;;;;;;;9.47;8.47;;;12.30;99.90;;;;;;5114122;28;20568;-59
2021/05/14 05:02:28;;;;;;;9.32;8.05;;;12.30;99.90;;;;;;5114264;28;20198;-59
2021/05/14 05:04:57;;;;;;;9.90;8.60;;;12.40;99.90;;;;;;5113706;28;20206;-59
2021/05/14 05:07:25;;;;;;;9.90;8.90;;;12.60;99.90;;;;;;5113952;28;20691;-59
2021/05/14 05:09:52;;;;;;;9.20;8.30;;;12.70;99.90;;;;;;5113743;28;20566;-59
2021/05/14 05:12:19;;;;;;;11.33;8.77;;;12.70;99.90;;;;;;5113428;28;20242;-59
2021/05/14 05:14:47;;;;;;;9.20;8.30;;;12.70;99.90;;;;;;5113091;28;20658;-59
2021/05/14 05:17:15;;;;;;;10.50;8.83;;;12.70;99.90;;;;;;5113555;28;20742;-59
2021/05/14 05:19:43;;;;;;;10.60;9.13;;;12.60;99.90;;;;;;5113826;28;20222;-58
2021/05/14 05:22:13;;;;;;;10.50;8.67;;;12.50;99.90;;;;;;5113870;28;20184;-59
2021/05/14 05:24:41;;;;;;;10.07;8.90;;;12.60;99.90;;;;;;5113616;28;20324;-59
2021/05/14 05:27:08;;;;;;;11.03;9.13;;;12.60;99.90;;;;;;5113703;28;20195;-59
2021/05/14 05:29:36;;;;;;;10.77;9.33;;;12.60;99.90;;;;;;5113222;28;20234;-59
2021/05/14 05:32:03;;;;;;;9.27;8.35;;;12.50;99.90;;;;;;5113327;28;20195;-60
2021/05/14 05:34:31;;;;;;;9.13;8.23;;;12.50;99.90;;;;;;5113161;28;20227;-59
2021/05/14 05:36:59;;;;;;;10.63;7.90;;;12.60;99.90;;;;;;5113539;28;20302;-60
2021/05/14 05:39:26;;;;;;;10.27;9.07;;;12.70;99.90;;;;;;5112858;28;20234;-59
2021/05/14 05:41:54;;;;;;;11.57;9.40;;;12.80;99.90;;;;;;5110390;28;20201;-60
2021/05/14 05:44:22;;;;;;;10.43;8.88;;;12.90;99.90;;;;;;5113003;28;20191;-59
2021/05/14 05:46:50;;;;;;;10.10;8.45;;;13.00;99.90;;;;;;5112979;28;20194;-58
2021/05/14 05:49:17;;;;;;;9.88;8.82;;;13.10;99.90;;;;;;5113034;28;20219;-60
2021/05/14 05:51:45;;;;;;;10.93;7.85;;;13.20;99.90;;;;;;5113139;28;20215;-59
2021/05/14 05:54:13;;;;;;;11.07;8.60;;;13.30;99.90;;;;;;5111907;28;20237;-58
2021/05/14 05:56:43;;;;;;;11.43;8.85;;;13.40;99.90;;;;;;5112850;28;20217;-59
2021/05/14 05:59:14;;;;;;;8.98;8.18;;;13.50;99.90;;;;;;5113086;28;20742;-59
2021/05/14 06:01:41;;;;;;;9.10;8.25;;;13.60;99.90;;;;;;5113442;28;20236;-59
2021/05/14 06:04:09;;;;;;;9.55;8.55;;;13.50;99.90;;;;;;5112937;28;20933;-59
2021/05/14 06:06:36;;;;;;;9.85;8.93;;;13.60;99.90;;;;;;5113253;28;20302;-60
2021/05/14 06:09:04;;;;;;;8.82;8.00;;;13.60;99.90;;;;;;5112851;28;20291;-59
2021/05/14 06:11:32;;;;;;;8.30;7.40;;;13.60;99.90;;;;;;5113260;28;20199;-60
2021/05/14 06:14:00;;;;;;;9.18;8.10;;;13.50;99.90;;;;;;5112767;28;20311;-58
2021/05/14 06:16:28;;;;;;;9.07;7.85;;;13.40;99.90;;;;;;5113155;28;20203;-60
2021/05/14 06:19:00;;;;;;;8.82;7.30;;;13.20;99.90;;;;;;5113082;28;20199;-59
2021/05/14 06:21:28;;;;;;;8.75;7.85;;;13.00;99.90;;;;;;5117861;28;20178;-59
2021/05/14 06:23:55;;;;;;;12.00;8.60;;;13.10;99.90;;;;;;5112763;28;20199;-59
2021/05/14 06:26:22;;;;;;;9.85;8.70;;;13.00;99.90;;;;;;5112279;28;20214;-59
2021/05/14 06:28:50;;;;;;;9.45;8.45;;;13.00;99.90;;;;;;5112384;28;20618;-59
2021/05/14 06:31:18;;;;;;;10.00;8.50;;;13.00;99.90;;;;;;5112734;28;20298;-59
2021/05/14 06:33:45;;;;;;;8.95;7.95;;;13.20;99.90;;;;;;5112248;28;20223;-59
2021/05/14 06:36:12;;;;;;;11.15;8.25;;;13.40;99.90;;;;;;5112775;28;20210;-60
2021/05/14 06:38:40;;;;;;;10.38;8.70;;;13.50;99.90;;;;;;5112422;28;20318;-59
2021/05/14 06:41:07;;;;;;;8.68;7.78;;;13.70;99.90;;;;;;5112399;28;20241;-59
2021/05/14 06:43:34;;;;;;;10.93;8.13;;;13.80;99.90;;;;;;5112326;28;20206;-59
2021/05/14 06:46:03;;;;;;;8.82;7.63;;;13.80;99.90;;;;;;5112696;28;20205;-60
2021/05/14 06:48:35;;;;;;;9.70;7.65;;;13.90;99.90;;;;;;5112555;28;20192;-59
2021/05/14 06:51:04;;;;;;;8.20;7.28;;;14.10;99.90;;;;;;5112745;28;20252;-59
2021/05/14 06:53:31;;;;;;;9.07;7.32;;;14.10;99.90;;;;;;5112491;28;20242;-59
2021/05/14 06:55:59;;;;;;;7.88;7.07;;;14.00;99.90;;;;;;5112410;28;20235;-60
2021/05/14 06:58:26;;;;;;;8.25;6.85;;;14.10;99.90;;;;;;5112589;28;20206;-58
2021/05/14 07:00:53;;;;;;;9.52;6.68;;;14.10;99.90;;;;;;5112152;28;20674;-59
2021/05/14 07:03:21;;;;;;;10.35;7.07;;;14.20;99.90;;;;;;5112601;28;20286;-58
2021/05/14 07:05:49;;;;;;;8.20;6.63;;;14.30;99.90;;;;;;5115073;27;20206;-60
2021/05/14 07:08:16;;;;;;;7.03;5.97;;;14.50;99.90;;;;;;5116323;28;20223;-59
2021/05/14 07:10:43;;;;;;;8.13;6.30;;;14.60;99.90;;;;;;5116100;28;20298;-59
2021/05/14 07:13:11;;;;;;;7.32;6.55;;;14.70;99.90;;;;;;5116505;28;20199;-59
2021/05/14 07:15:38;;;;;;;7.28;6.07;;;14.80;99.90;;;;;;5116074;28;20219;-60
2021/05/14 07:18:06;;;;;;;8.00;7.20;;;14.80;99.90;;;;;;5117047;28;20584;-59
2021/05/14 07:20:36;;;;;;;6.95;6.25;;;14.90;99.90;;;;;;5116129;28;20231;-58
2021/05/14 07:23:04;;;;;;;6.80;6.05;;;14.90;99.90;;;;;;5116435;28;20245;-60
2021/05/14 07:25:31;;;;;;;6.38;5.78;;;14.80;99.90;;;;;;5116022;28;20278;-60
2021/05/14 07:27:58;;;;;;;5.63;5.13;;;14.90;99.90;;;;;;5116207;28;20282;-60
2021/05/14 07:30:26;;;;;;;5.88;5.28;;;14.80;99.90;;;;;;5115773;28;20225;-58
2021/05/14 07:32:54;;;;;;;7.10;5.80;;;15.00;99.90;;;;;;5115743;28;20746;-59
2021/05/14 07:35:22;;;;;;;7.90;5.60;;;15.20;99.90;;;;;;5115594;28;20219;-60
2021/05/14 07:38:08;;;;;;;7.63;5.97;;;15.30;99.90;;;;;;5115335;28;20288;-59
2021/05/14 07:40:35;;;;;;;8.57;6.97;;;15.30;99.90;;;;;;5115351;28;20203;-57
2021/05/14 07:43:02;;;;;;;7.88;6.38;;;15.50;99.90;;;;;;5115716;28;20199;-58
2021/05/14 07:45:30;;;;;;;6.05;5.45;;;15.70;99.90;;;;;;5115461;28;20295;-60
2021/05/14 07:48:03;;;;;;;6.82;6.13;;;15.80;99.90;;;;;;5116219;28;20310;-59
2021/05/14 07:50:31;;;;;;;6.88;5.97;;;15.80;99.90;;;;;;5115962;28;20204;-59
2021/05/14 07:52:58;;;;;;;9.10;7.00;;;15.90;99.90;;;;;;5115546;28;20199;-59
2021/05/14 07:55:27;;;;;;;10.68;7.03;;;16.00;99.90;;;;;;5115685;28;20220;-59
2021/05/14 07:57:54;;;;;;;9.02;7.47;;;16.00;99.90;;;;;;5116029;28;20226;-59
2021/05/14 08:00:21;;;;;;;9.27;7.13;;;16.10;99.90;;;;;;5115117;28;20238;-60
2021/05/14 08:02:49;;;;;;;9.30;7.50;;;16.10;99.90;;;;;;5115264;28;20239;-59
2021/05/14 08:05:16;;;;;;;8.80;7.55;;;16.20;99.90;;;;;;5115383;28;20199;-60
2021/05/14 08:07:44;;;;;;;8.32;6.90;;;16.30;99.90;;;;;;5115121;28;20199;-59
2021/05/14 08:10:12;;;;;;;8.15;6.80;;;16.20;99.90;;;;;;5114889;28;20268;-61
2021/05/14 08:13:01;;;;;;;8.65;6.63;;;16.30;99.90;;;;;;5115088;28;20199;-59
2021/05/14 08:15:29;;;;;;;8.25;6.70;;;16.40;99.90;;;;;;5115139;28;20309;-59
2021/05/14 08:17:56;;;;;;;10.32;7.40;;;16.40;99.90;;;;;;5114125;28;20295;-59
2021/05/14 08:20:24;;;;;;;8.45;7.40;;;16.50;99.90;;;;;;5115204;28;20231;-59
2021/05/14 08:22:52;;;;;;;8.57;6.93;;;16.60;99.90;;;;;;5114955;28;20306;-60
2021/05/14 08:25:20;;;;;;;8.65;6.88;;;16.80;99.90;;;;;;5115018;28;20248;-59
2021/05/14 08:27:47;;;;;;;6.40;5.60;;;16.90;99.90;;;;;;5114835;28;20291;-60
2021/05/14 08:30:16;;;;;;;7.53;6.53;;;17.10;99.90;;;;;;5114364;28;20206;-59
2021/05/14 08:32:44;;;;;;;7.85;6.07;;;17.40;99.90;;;;;;5114625;28;20294;-58
2021/05/14 08:35:11;;;;;;;6.60;5.90;;;17.60;99.90;;;;;;5114402;28;20219;-58
2021/05/14 08:37:41;;;;;;;6.72;5.88;;;17.80;99.90;;;;;;5114580;28;20295;-59
2021/05/14 08:40:09;;;;;;;6.65;5.30;;;18.00;99.90;;;;;;5114256;28;20712;-58
2021/05/14 08:42:39;;;;;;;7.82;6.00;;;18.10;99.90;;;;;;5114589;28;20206;-59
2021/05/14 08:45:09;;;;;;;6.43;5.80;;;18.10;99.90;;;;;;5114242;28;20252;-58
2021/05/14 08:47:37;;;;;;;6.50;5.90;;;18.10;99.90;;;;;;5114294;28;20286;-59
2021/05/14 08:50:08;;;;;;;6.50;5.88;;;18.10;99.90;;;;;;5114346;28;20209;-59
2021/05/14 08:52:36;;;;;;;6.55;5.88;;;18.10;99.90;;;;;;5114647;28;20207;-59
2021/05/14 08:55:05;;;;;;;6.18;5.57;;;17.80;99.90;;;;;;5113939;28;20654;-59
2021/05/14 08:57:33;;;;;;;7.30;6.00;;;17.60;99.90;;;;;;5114353;28;20282;-58
2021/05/14 09:00:00;;;;;;;7.57;5.72;;;17.40;99.90;;;;;;5114221;28;20294;-58
2021/05/14 09:02:27;;;;;;;7.13;5.78;;;17.30;99.90;;;;;;5114054;28;20302;-57
2021/05/14 09:04:56;;;;;;;7.25;6.22;;;17.30;99.90;;;;;;5113955;28;20568;-60
2021/05/14 09:07:23;;;;;;;7.85;6.00;;;17.40;99.90;;;;;;5113991;28;20234;-59
2021/05/14 09:10:07;;;;;;;6.13;5.28;;;17.50;99.90;;;;;;5113828;28;20286;-60
2021/05/14 09:12:36;;;;;;;6.45;5.85;;;17.40;99.90;;;;;;5113943;28;20206;-60
2021/05/14 09:15:22;;;;;;;6.72;5.35;;;17.70;99.90;;;;;;5113134;28;20581;-58
2021/05/14 09:18:11;;;;;;;7.13;6.15;;;18.00;99.90;;;;;;5113851;28;20545;-58
2021/05/14 09:20:42;;;;;;;6.00;5.40;;;18.30;99.90;;;;;;5112895;28;20574;-58
2021/05/14 09:23:41;;;;;;;6.93;5.13;;;18.40;99.90;;;;;;5113136;28;20285;-59
2021/05/14 09:26:10;;;;;;;7.82;6.38;;;18.50;99.90;;;;;;5101233;28;20271;-58
2021/05/14 09:28:39;;;;;;;6.93;6.22;;;18.40;99.90;;;;;;5113379;28;20203;-59
2021/05/14 09:31:10;;;;;;;6.10;5.43;;;18.30;99.90;;;;;;5113580;28;20200;-59
2021/05/14 09:33:39;;;;;;;7.18;6.47;;;18.00;99.90;;;;;;5113449;28;20295;-60
2021/05/14 09:36:09;;;;;;;7.60;6.45;;;17.90;99.90;;;;;;5113481;28;20650;-59
2021/05/14 09:38:41;;;;;;;7.85;7.15;;;17.70;99.90;;;;;;5113137;28;20281;-60
2021/05/14 09:41:26;;;;;;;8.27;7.38;;;17.60;99.90;;;;;;5113286;28;20271;-58
2021/05/14 09:43:54;;;;;;;8.93;7.88;;;17.50;99.90;;;;;;5113103;28;20715;-59
2021/05/14 09:46:36;;;;;;;7.88;7.18;;;17.30;99.90;;;;;;5113378;28;20294;-60
2021/05/14 09:49:09;;;;;;;8.80;7.90;;;17.50;99.90;;;;;;5112815;28;20537;-60
2021/05/14 09:51:47;;;;;;;7.70;7.00;;;17.80;99.90;;;;;;5113246;28;20254;-60
2021/05/14 09:54:19;;;;;;;8.65;7.93;;;17.90;99.90;;;;;;5113347;28;20237;-60
2021/05/14 09:57:04;;;;;;;10.32;9.23;;;17.90;99.90;;;;;;5113191;28;20577;-58
2021/05/14 09:59:32;;;;;;;10.77;9.77;;;17.90;99.90;;;;;;5112666;28;20215;-59
2021/05/14 10:01:59;;;;;;;10.85;9.80;;;17.60;99.90;;;;;;5112498;28;20199;-59
2021/05/14 10:04:30;;;;;;;10.02;9.05;;;17.40;99.90;;;;;;5112912;28;20207;-60
2021/05/14 10:07:00;;;;;;;11.55;10.40;;;17.30;99.90;;;;;;5113002;28;20214;-58
2021/05/14 10:09:28;;;;;;;11.13;10.02;;;17.20;99.90;;;;;;5112623;28;20207;-59
2021/05/14 10:11:56;;;;;;;10.82;9.73;;;17.10;99.90;;;;;;5112625;28;20222;-59
2021/05/14 10:14:25;;;;;;;11.15;9.90;;;17.00;99.90;;;;;;5112616;28;20576;-60
2021/05/14 10:16:53;;;;;;;9.70;8.80;;;16.90;99.90;;;;;;5112820;28;20290;-60
2021/05/14 10:19:23;;;;;;;9.93;8.77;;;16.80;99.90;;;;;;5112908;28;20559;-59
2021/05/14 10:21:52;;;;;;;10.27;9.27;;;16.60;99.90;;;;;;5112270;28;20230;-59
2021/05/14 10:24:38;;;;;;;10.32;9.32;;;16.50;99.90;;;;;;5112081;28;20203;-60
2021/05/14 10:27:16;;;;;;;10.27;9.27;;;16.40;99.90;;;;;;5112267;28;20183;-59
2021/05/14 10:29:45;;;;;;;9.82;8.55;;;16.30;99.90;;;;;;5112490;28;20223;-59
2021/05/14 10:32:14;;;;;;;8.95;8.05;;;16.20;99.90;;;;;;5112494;28;20227;-59
2021/05/14 10:34:41;;;;;;;11.85;9.48;;;16.00;99.90;;;;;;5112605;28;20285;-59
2021/05/14 10:37:09;;;;;;;11.82;10.60;;;15.90;99.90;;;;;;5112449;28;20576;-59
2021/05/14 10:39:39;;;;;;;11.38;10.38;;;15.80;99.90;;;;;;5112361;28;20184;-60
2021/05/14 10:42:09;;;;;;;11.90;10.57;;;15.70;99.90;;;;;;5114665;28;20694;-59
2021/05/14 10:44:51;;;;;;;11.38;10.27;;;15.50;99.90;;;;;;5116451;28;20230;-59
2021/05/14 10:47:47;;;;;;;12.35;11.25;;;15.40;99.90;;;;;;5116441;28;20278;-59
2021/05/14 10:50:39;;;;;;;14.00;12.48;;;15.20;99.90;;;;;;5116524;28;20184;-59
2021/05/14 10:53:31;;;;;;;13.52;11.63;;;15.10;99.90;;;;;;5116766;28;20634;-59
2021/05/14 10:56:47;;;;;;;12.80;11.63;;;14.80;99.90;;;;;;5116079;28;20729;-60
2021/05/14 10:59:14;;;;;;;13.90;12.50;;;14.70;99.90;;;;;;5116276;28;20202;-58
2021/05/14 11:01:43;;;;;;;14.35;12.98;;;14.40;99.90;;;;;;5116157;28;20206;-59
2021/05/14 11:04:40;;;;;;;15.18;13.57;;;14.10;99.90;;;;;;5116067;28;20211;-58
2021/05/14 11:07:28;;;;;;;14.32;12.77;;;13.90;99.90;;;;;;5116165;28;20211;-59
2021/05/14 11:10:32;;;;;;;15.30;13.73;;;13.80;99.90;;;;;;5115548;28;20252;-59
2021/05/14 11:13:37;;;;;;;15.10;13.50;;;13.60;99.90;;;;;;5115939;28;20192;-58
2021/05/14 11:16:33;;;;;;;13.38;11.98;;;13.50;99.90;;;;;;5115757;28;20255;-59
2021/05/14 11:19:16;;;;;;;15.18;13.68;;;13.40;99.90;;;;;;5115509;28;20260;-59
2021/05/14 11:22:04;;;;;;;17.20;14.93;;;13.30;99.90;;;;;;5116076;28;20255;-59
2021/05/14 11:24:36;;;;;;;18.00;16.13;;;13.20;99.90;;;;;;5115797;28;20267;-59
2021/05/14 11:27:10;;;;;;;17.05;15.20;;;13.30;99.90;;;;;;5115921;28;20202;-58
2021/05/14 11:29:45;;;;;;;18.67;16.77;;;13.50;99.90;;;;;;5115682;28;20275;-59
2021/05/14 11:32:24;;;;;;;13.13;11.93;;;13.60;99.90;;;;;;5115651;28;20592;-59
2021/05/14 11:35:10;;;;;;;13.93;12.52;;;13.60;99.90;;;;;;5115515;28;20274;-59
2021/05/14 11:37:40;;;;;;;11.93;10.70;;;13.60;99.90;;;;;;5115529;28;20318;-59
2021/05/14 11:40:13;;;;;;;11.82;9.95;;;13.50;99.90;;;;;;5115565;28;20211;-59
2021/05/14 11:42:44;;;;;;;11.77;10.53;;;13.40;99.90;;;;;;5115783;28;20619;-58
2021/05/14 11:45:18;;;;;;;14.07;11.47;;;13.30;99.90;;;;;;5115597;28;20299;-60
2021/05/14 11:47:48;;;;;;;12.47;11.27;;;13.20;99.90;;;;;;5115705;28;20188;-60
2021/05/14 11:50:24;;;;;;;11.30;10.20;;;13.10;99.90;;;;;;5115636;28;20266;-59
2021/05/14 11:52:51;;;;;;;11.60;10.40;;;13.00;99.90;;;;;;5114246;28;20226;-58
2021/05/14 11:55:19;;;;;;;11.30;8.83;;;13.00;99.90;;;;;;5115055;28;20235;-58
2021/05/14 11:57:48;;;;;;;10.73;9.60;;;13.10;99.90;;;;;;5114989;28;20247;-59
2021/05/14 12:00:24;;;;;;;9.77;8.75;;;13.20;99.90;;;;;;5114501;28;20226;-59
2021/05/14 12:02:52;;;;;;;9.65;8.75;;;13.30;99.90;;;;;;5115278;28;20345;-59
2021/05/14 12:05:21;;;;;;;11.38;8.75;;;13.40;99.90;;;;;;5114510;28;20203;-59
2021/05/14 12:07:49;;;;;;;9.65;8.57;;;13.50;99.90;;;;;;5115267;28;20231;-58
2021/05/14 12:10:18;;;;;;;10.60;9.35;;;13.60;99.90;;;;;;5115067;28;20249;-58
2021/05/14 12:12:46;;;;;;;13.25;9.43;;;13.80;99.90;;;;;;5114392;28;20196;-59
2021/05/14 12:15:23;;;;;;;9.80;8.85;;;14.10;99.90;;;;;;5097838;28;20283;-59
2021/05/14 12:17:57;;;;;;;8.63;7.82;;;14.50;99.90;;;;;;5112943;28;20262;-59
2021/05/14 12:20:28;;;;;;;8.52;7.65;;;15.00;99.90;;;;;;5114071;28;20639;-60
2021/05/14 12:22:58;;;;;;;8.65;7.75;;;15.40;99.90;;;;;;5114375;27;20204;-59
2021/05/14 12:25:27;;;;;;;7.88;7.18;;;15.70;99.90;;;;;;5114340;28;20209;-59
2021/05/14 12:27:56;;;;;;;9.07;8.25;;;16.10;99.90;;;;;;5114421;28;20675;-58
2021/05/14 12:30:38;;;;;;;8.88;7.22;;;16.20;99.90;;;;;;5114314;28;20231;-58
2021/05/14 12:33:07;;;;;;;7.32;6.63;;;16.40;99.90;;;;;;5114316;28;20631;-58
2021/05/14 12:35:35;;;;;;;8.68;7.88;;;16.50;99.90;;;;;;5114525;28;20262;-59
2021/05/14 12:38:02;;;;;;;7.43;6.43;;;16.40;99.90;;;;;;5114221;28;20234;-60
2021/05/14 12:40:37;;;;;;;8.88;7.97;;;16.40;99.90;;;;;;5114267;28;20298;-59
2021/05/14 12:43:10;;;;;;;8.13;7.32;;;16.30;99.90;;;;;;5114466;28;20218;-60
2021/05/14 12:45:40;;;;;;;8.50;7.32;;;16.30;99.90;;;;;;5110313;28;20314;-58
2021/05/14 12:48:10;;;;;;;8.05;7.35;;;16.30;99.90;;;;;;5114028;28;20219;-59
2021/05/14 12:50:41;;;;;;;9.45;8.00;;;16.30;99.90;;;;;;5114256;28;20543;-58
2021/05/14 12:53:21;;;;;;;9.95;8.80;;;16.10;99.90;;;;;;5114047;28;20271;-59
2021/05/14 12:55:48;;;;;;;9.55;8.65;;;15.90;99.90;;;;;;5114153;28;20309;-59
2021/05/14 12:58:15;;;;;;;11.50;10.40;;;15.60;99.90;;;;;;5113843;28;20235;-59
2021/05/14 13:00:44;;;;;;;11.82;10.57;;;15.50;99.90;;;;;;5113631;28;20547;-59